PWSweather.com
Personal Weather Stations
Station Observations
BAYPARK
Bay Park, Ny, East Rockaway, NY 11518

Bay Park, NyEast Rockaway, NY 11518

Lat: 40.6310098, Lon: -73.6727287

Elevation: 11

Station Type: AcuRite Pro

https://www.awekas.at/en/instrument.php?id=14894

High Low Average
Temperature 88.4°F31.3°C 64.4°F18.0°C 73.0°F22.8°C
Dew Point 66.4°F19.1°C 57.5°F14.2°C 63.4°F17.4°C
Winds 3.3 mph 5.3 kmh Calm Calm 1.0 mph SSE1.6 kmh SSE
Wind Gusts 7.8 mph12.6 kmh -- 2.0 mph3.2 kmh
Humidity 98% 47% 74%
Pressure 30.32 in1026.8 mb 30.18 in1022.0 mb -
Precipitation 0.00 in0.0 mm - -
Hour Temp Dew Point Humidity Winds Wind Gusts Pressure Precip Precip Rate Daily Precip Total
12:00 AM 68.3°F20.2°C 65.2°F18.4°C 90% 0.2 mph SW0.3 kmh SW 1.7 mph2.7 kmh 30.18 in1022.0 mb 0.00 in0.0 mm 0.00 in0.0 mm 0.00 in0.0 mm
12:05 AM 68.4°F20.2°C 65.3°F18.5°C 90% 0.6 mph SE1.0 kmh SE 1.7 mph2.7 kmh 30.19 in1022.4 mb 0.00 in0.0 mm 0.00 in0.0 mm 0.00 in0.0 mm
12:10 AM 68.4°F20.2°C 65.1°F18.4°C 89% 0.3 mph NE0.5 kmh NE 1.1 mph1.8 kmh 30.19 in1022.4 mb 0.00 in0.0 mm 0.00 in0.0 mm 0.00 in0.0 mm
12:15 AM 68.4°F20.2°C 65.0°F18.3°C 89% 0.1 mph N0.2 kmh N 1.1 mph1.8 kmh 30.19 in1022.4 mb 0.00 in0.0 mm 0.00 in0.0 mm 0.00 in0.0 mm
12:20 AM 68.3°F20.2°C 64.6°F18.1°C 88% Calm Calm -- 30.19 in1022.4 mb 0.00 in0.0 mm 0.00 in0.0 mm 0.00 in0.0 mm
12:25 AM 68.2°F20.1°C 64.5°F18.1°C 88% Calm Calm -- 30.19 in1022.4 mb 0.00 in0.0 mm 0.00 in0.0 mm 0.00 in0.0 mm
12:30 AM 68.2°F20.1°C 64.5°F18.1°C 88% 0.1 mph ENE0.2 kmh ENE 1.1 mph1.8 kmh 30.19 in1022.4 mb 0.00 in0.0 mm 0.00 in0.0 mm 0.00 in0.0 mm
12:35 AM 68.2°F20.1°C 64.4°F18.0°C 88% 0.4 mph S0.6 kmh S 1.7 mph2.7 kmh 30.19 in1022.4 mb 0.00 in0.0 mm 0.00 in0.0 mm 0.00 in0.0 mm
12:40 AM 68.2°F20.1°C 64.2°F17.9°C 87% Calm Calm -- 30.20 in1022.7 mb 0.00 in0.0 mm 0.00 in0.0 mm 0.00 in0.0 mm
12:45 AM 68.2°F20.1°C 64.2°F17.9°C 87% Calm Calm -- 30.20 in1022.7 mb 0.00 in0.0 mm 0.00 in0.0 mm 0.00 in0.0 mm
12:50 AM 68.2°F20.1°C 64.2°F17.9°C 87% Calm Calm -- 30.20 in1022.7 mb 0.00 in0.0 mm 0.00 in0.0 mm 0.00 in0.0 mm
12:55 AM 68.2°F20.1°C 64.2°F17.9°C 87% Calm Calm -- 30.20 in1022.7 mb 0.00 in0.0 mm 0.00 in0.0 mm 0.00 in0.0 mm
01:00 AM 68.2°F20.1°C 64.1°F17.8°C 87% Calm Calm -- 30.20 in1022.7 mb 0.00 in0.0 mm 0.00 in0.0 mm 0.00 in0.0 mm
01:05 AM 68.2°F20.1°C 63.8°F17.7°C 86% 0.8 mph E1.3 kmh E 2.7 mph4.3 kmh 30.20 in1022.7 mb 0.00 in0.0 mm 0.00 in0.0 mm 0.00 in0.0 mm
01:10 AM 68.2°F20.1°C 63.5°F17.5°C 85% Calm Calm -- 30.20 in1022.7 mb 0.00 in0.0 mm 0.00 in0.0 mm 0.00 in0.0 mm
01:15 AM 68.2°F20.1°C 63.5°F17.5°C 85% Calm Calm -- 30.19 in1022.4 mb 0.00 in0.0 mm 0.00 in0.0 mm 0.00 in0.0 mm
01:20 AM 68.2°F20.1°C 63.5°F17.5°C 85% Calm Calm -- 30.19 in1022.4 mb 0.00 in0.0 mm 0.00 in0.0 mm 0.00 in0.0 mm
01:25 AM 68.2°F20.1°C 63.5°F17.5°C 85% 0.8 mph SE1.3 kmh SE 2.2 mph3.5 kmh 30.19 in1022.4 mb 0.00 in0.0 mm 0.00 in0.0 mm 0.00 in0.0 mm
01:30 AM 68.2°F20.1°C 63.5°F17.5°C 85% 0.7 mph SE1.1 kmh SE 2.7 mph4.3 kmh 30.19 in1022.4 mb 0.00 in0.0 mm 0.00 in0.0 mm 0.00 in0.0 mm
01:35 AM 68.2°F20.1°C 63.5°F17.5°C 85% 0.5 mph ENE0.8 kmh ENE 1.7 mph2.7 kmh 30.19 in1022.4 mb 0.00 in0.0 mm 0.00 in0.0 mm 0.00 in0.0 mm
01:40 AM 68.1°F20.1°C 63.4°F17.4°C 85% Calm Calm -- 30.19 in1022.4 mb 0.00 in0.0 mm 0.00 in0.0 mm 0.00 in0.0 mm
01:45 AM 68.0°F20.0°C 63.3°F17.4°C 85% 0.3 mph SE0.5 kmh SE 1.1 mph1.8 kmh 30.19 in1022.4 mb 0.00 in0.0 mm 0.00 in0.0 mm 0.00 in0.0 mm
01:50 AM 67.9°F19.9°C 63.2°F17.3°C 85% 1.1 mph SSE1.8 kmh SSE 2.2 mph3.5 kmh 30.19 in1022.4 mb 0.00 in0.0 mm 0.00 in0.0 mm 0.00 in0.0 mm
01:55 AM 67.8°F19.9°C 63.1°F17.3°C 85% 0.5 mph SW0.8 kmh SW 1.7 mph2.7 kmh 30.19 in1022.4 mb 0.00 in0.0 mm 0.00 in0.0 mm 0.00 in0.0 mm
02:00 AM 67.8°F19.9°C 63.1°F17.3°C 85% 0.6 mph E1.0 kmh E 2.2 mph3.5 kmh 30.19 in1022.4 mb 0.00 in0.0 mm 0.00 in0.0 mm 0.00 in0.0 mm
02:05 AM 67.7°F19.8°C 63.0°F17.2°C 85% 1.0 mph E1.6 kmh E 3.2 mph5.1 kmh 30.19 in1022.4 mb 0.00 in0.0 mm 0.00 in0.0 mm 0.00 in0.0 mm
02:10 AM 67.6°F19.8°C 62.6°F17.0°C 84% Calm Calm -- 30.19 in1022.4 mb 0.00 in0.0 mm 0.00 in0.0 mm 0.00 in0.0 mm
02:15 AM 67.6°F19.8°C 62.5°F16.9°C 84% 0.9 mph ESE1.4 kmh ESE 2.7 mph4.3 kmh 30.19 in1022.4 mb 0.00 in0.0 mm 0.00 in0.0 mm 0.00 in0.0 mm
02:20 AM 67.6°F19.8°C 62.2°F16.8°C 83% 0.5 mph SSE0.8 kmh SSE 1.7 mph2.7 kmh 30.19 in1022.4 mb 0.00 in0.0 mm 0.00 in0.0 mm 0.00 in0.0 mm
02:25 AM 67.6°F19.8°C 61.9°F16.6°C 82% 0.4 mph SE0.6 kmh SE 1.7 mph2.7 kmh 30.19 in1022.4 mb 0.00 in0.0 mm 0.00 in0.0 mm 0.00 in0.0 mm
02:30 AM 67.6°F19.8°C 61.6°F16.4°C 81% 1.1 mph SSE1.8 kmh SSE 2.2 mph3.5 kmh 30.19 in1022.4 mb 0.00 in0.0 mm 0.00 in0.0 mm 0.00 in0.0 mm
02:35 AM 67.6°F19.8°C 61.4°F16.3°C 81% 0.6 mph SE1.0 kmh SE 1.7 mph2.7 kmh 30.19 in1022.4 mb 0.00 in0.0 mm 0.00 in0.0 mm 0.00 in0.0 mm
02:40 AM 67.6°F19.8°C 61.1°F16.2°C 80% 0.8 mph ESE1.3 kmh ESE 2.7 mph4.3 kmh 30.19 in1022.4 mb 0.00 in0.0 mm 0.00 in0.0 mm 0.00 in0.0 mm
02:45 AM 67.6°F19.8°C 60.5°F15.8°C 78% 1.7 mph SSE2.7 kmh SSE 3.2 mph5.1 kmh 30.20 in1022.7 mb 0.00 in0.0 mm 0.00 in0.0 mm 0.00 in0.0 mm
02:50 AM 67.6°F19.8°C 60.2°F15.7°C 77% 1.7 mph S2.7 kmh S 3.2 mph5.1 kmh 30.20 in1022.7 mb 0.00 in0.0 mm 0.00 in0.0 mm 0.00 in0.0 mm
02:55 AM 67.6°F19.8°C 60.1°F15.6°C 77% 1.2 mph WSW1.9 kmh WSW 2.7 mph4.3 kmh 30.20 in1022.7 mb 0.00 in0.0 mm 0.00 in0.0 mm 0.00 in0.0 mm
03:00 AM 67.6°F19.8°C 59.8°F15.4°C 76% 1.1 mph E1.8 kmh E 2.7 mph4.3 kmh 30.20 in1022.7 mb 0.00 in0.0 mm 0.00 in0.0 mm 0.00 in0.0 mm
03:05 AM 67.6°F19.8°C 59.8°F15.4°C 76% 0.1 mph N0.2 kmh N 1.1 mph1.8 kmh 30.20 in1022.7 mb 0.00 in0.0 mm 0.00 in0.0 mm 0.00 in0.0 mm
03:10 AM 67.5°F19.7°C 59.7°F15.4°C 76% Calm Calm -- 30.20 in1022.7 mb 0.00 in0.0 mm 0.00 in0.0 mm 0.00 in0.0 mm
03:15 AM 67.5°F19.7°C 59.3°F15.2°C 75% 0.3 mph S0.5 kmh S 1.7 mph2.7 kmh 30.20 in1022.7 mb 0.00 in0.0 mm 0.00 in0.0 mm 0.00 in0.0 mm
03:20 AM 67.5°F19.7°C 59.3°F15.2°C 75% 0.3 mph WNW0.5 kmh WNW 1.7 mph2.7 kmh 30.20 in1022.7 mb 0.00 in0.0 mm 0.00 in0.0 mm 0.00 in0.0 mm
03:25 AM 67.3°F19.6°C 59.1°F15.1°C 75% 1.2 mph S1.9 kmh S 2.7 mph4.3 kmh 30.20 in1022.7 mb 0.00 in0.0 mm 0.00 in0.0 mm 0.00 in0.0 mm
03:30 AM 67.2°F19.6°C 59.0°F15.0°C 75% 1.2 mph SSW1.9 kmh SSW 2.7 mph4.3 kmh 30.20 in1022.7 mb 0.00 in0.0 mm 0.00 in0.0 mm 0.00 in0.0 mm
03:35 AM 67.0°F19.4°C 58.8°F14.9°C 75% 1.4 mph SE2.3 kmh SE 3.2 mph5.1 kmh 30.20 in1022.7 mb 0.00 in0.0 mm 0.00 in0.0 mm 0.00 in0.0 mm
03:40 AM 66.8°F19.3°C 58.6°F14.8°C 75% 0.9 mph S1.4 kmh S 2.2 mph3.5 kmh 30.20 in1022.7 mb 0.00 in0.0 mm 0.00 in0.0 mm 0.00 in0.0 mm
03:45 AM 66.5°F19.2°C 58.4°F14.7°C 75% Calm Calm -- 30.20 in1022.7 mb 0.00 in0.0 mm 0.00 in0.0 mm 0.00 in0.0 mm
03:50 AM 66.4°F19.1°C 58.2°F14.6°C 75% 1.0 mph SW1.6 kmh SW 2.2 mph3.5 kmh 30.20 in1022.7 mb 0.00 in0.0 mm 0.00 in0.0 mm 0.00 in0.0 mm
03:55 AM 66.2°F19.0°C 58.1°F14.5°C 75% 0.2 mph N0.3 kmh N 1.7 mph2.7 kmh 30.20 in1022.7 mb 0.00 in0.0 mm 0.00 in0.0 mm 0.00 in0.0 mm
04:00 AM 65.9°F18.8°C 58.1°F14.5°C 76% 0.1 mph WNW0.2 kmh WNW 1.1 mph1.8 kmh 30.20 in1022.7 mb 0.00 in0.0 mm 0.00 in0.0 mm 0.00 in0.0 mm
04:05 AM 65.7°F18.7°C 58.0°F14.4°C 76% 0.4 mph S0.6 kmh S 1.7 mph2.7 kmh 30.20 in1022.7 mb 0.00 in0.0 mm 0.00 in0.0 mm 0.00 in0.0 mm
04:10 AM 65.5°F18.6°C 57.9°F14.4°C 76% 0.1 mph N0.2 kmh N 1.1 mph1.8 kmh 30.20 in1022.7 mb 0.00 in0.0 mm 0.00 in0.0 mm 0.00 in0.0 mm
04:15 AM 65.3°F18.5°C 57.9°F14.4°C 77% Calm Calm -- 30.21 in1023.0 mb 0.00 in0.0 mm 0.00 in0.0 mm 0.00 in0.0 mm
04:20 AM 65.3°F18.5°C 57.9°F14.4°C 77% 0.4 mph SSE0.6 kmh SSE 1.7 mph2.7 kmh 30.21 in1023.0 mb 0.00 in0.0 mm 0.00 in0.0 mm 0.00 in0.0 mm
04:25 AM 65.3°F18.5°C 57.9°F14.4°C 77% 0.2 mph NE0.3 kmh NE 1.7 mph2.7 kmh 30.21 in1023.0 mb 0.00 in0.0 mm 0.00 in0.0 mm 0.00 in0.0 mm
04:30 AM 65.2°F18.4°C 57.8°F14.3°C 77% 0.4 mph SSW0.6 kmh SSW 1.1 mph1.8 kmh 30.21 in1023.0 mb 0.00 in0.0 mm 0.00 in0.0 mm 0.00 in0.0 mm
04:35 AM 65.1°F18.4°C 57.7°F14.3°C 77% 0.1 mph N0.2 kmh N 1.1 mph1.8 kmh 30.21 in1023.0 mb 0.00 in0.0 mm 0.00 in0.0 mm 0.00 in0.0 mm
04:40 AM 64.9°F18.3°C 57.5°F14.2°C 77% Calm Calm -- 30.21 in1023.0 mb 0.00 in0.0 mm 0.00 in0.0 mm 0.00 in0.0 mm
04:45 AM 64.8°F18.2°C 57.6°F14.2°C 77% Calm Calm -- 30.21 in1023.0 mb 0.00 in0.0 mm 0.00 in0.0 mm 0.00 in0.0 mm
04:50 AM 64.6°F18.1°C 57.6°F14.2°C 78% Calm Calm -- 30.21 in1023.0 mb 0.00 in0.0 mm 0.00 in0.0 mm 0.00 in0.0 mm
04:55 AM 64.5°F18.1°C 57.5°F14.2°C 78% Calm Calm -- 30.21 in1023.0 mb 0.00 in0.0 mm 0.00 in0.0 mm 0.00 in0.0 mm
05:00 AM 64.4°F18.0°C 57.7°F14.3°C 79% Calm Calm -- 30.21 in1023.0 mb 0.00 in0.0 mm 0.00 in0.0 mm 0.00 in0.0 mm
05:05 AM 64.4°F18.0°C 57.7°F14.3°C 79% Calm Calm -- 30.22 in1023.4 mb 0.00 in0.0 mm 0.00 in0.0 mm 0.00 in0.0 mm
05:10 AM 64.4°F18.0°C 57.7°F14.3°C 79% 0.3 mph ESE0.5 kmh ESE 1.7 mph2.7 kmh 30.22 in1023.4 mb 0.00 in0.0 mm 0.00 in0.0 mm 0.00 in0.0 mm
05:15 AM 64.5°F18.1°C 57.8°F14.3°C 79% 0.5 mph ESE0.8 kmh ESE 1.7 mph2.7 kmh 30.22 in1023.4 mb 0.00 in0.0 mm 0.00 in0.0 mm 0.00 in0.0 mm
05:20 AM 64.6°F18.1°C 57.9°F14.4°C 79% 0.2 mph SE0.3 kmh SE 1.7 mph2.7 kmh 30.22 in1023.4 mb 0.00 in0.0 mm 0.00 in0.0 mm 0.00 in0.0 mm
05:25 AM 64.6°F18.1°C 57.9°F14.4°C 79% 1.1 mph SE1.8 kmh SE 1.7 mph2.7 kmh 30.22 in1023.4 mb 0.00 in0.0 mm 0.00 in0.0 mm 0.00 in0.0 mm
05:30 AM 64.8°F18.2°C 58.1°F14.5°C 79% 1.2 mph SW1.9 kmh SW 2.7 mph4.3 kmh 30.23 in1023.7 mb 0.00 in0.0 mm 0.00 in0.0 mm 0.00 in0.0 mm
05:35 AM 64.8°F18.2°C 58.1°F14.5°C 79% 0.4 mph SE0.6 kmh SE 1.1 mph1.8 kmh 30.23 in1023.7 mb 0.00 in0.0 mm 0.00 in0.0 mm 0.00 in0.0 mm
05:40 AM 64.6°F18.1°C 57.9°F14.4°C 79% 1.4 mph SE2.3 kmh SE 3.2 mph5.1 kmh 30.23 in1023.7 mb 0.00 in0.0 mm 0.00 in0.0 mm 0.00 in0.0 mm
05:45 AM 64.6°F18.1°C 57.9°F14.4°C 79% 0.7 mph SE1.1 kmh SE 2.2 mph3.5 kmh 30.23 in1023.7 mb 0.00 in0.0 mm 0.00 in0.0 mm 0.00 in0.0 mm
05:50 AM 64.6°F18.1°C 57.9°F14.4°C 79% 1.1 mph WSW1.8 kmh WSW 2.2 mph3.5 kmh 30.23 in1023.7 mb 0.00 in0.0 mm 0.00 in0.0 mm 0.00 in0.0 mm
05:55 AM 64.6°F18.1°C 57.9°F14.4°C 79% 0.9 mph S1.4 kmh S 2.7 mph4.3 kmh 30.23 in1023.7 mb 0.00 in0.0 mm 0.00 in0.0 mm 0.00 in0.0 mm
06:00 AM 64.7°F18.2°C 58.0°F14.4°C 79% 1.6 mph SE2.6 kmh SE 4.2 mph6.8 kmh 30.23 in1023.7 mb 0.00 in0.0 mm 0.00 in0.0 mm 0.00 in0.0 mm
06:05 AM 64.8°F18.2°C 58.1°F14.5°C 79% 0.8 mph SE1.3 kmh SE 2.2 mph3.5 kmh 30.23 in1023.7 mb 0.00 in0.0 mm 0.00 in0.0 mm 0.00 in0.0 mm
06:10 AM 64.8°F18.2°C 58.1°F14.5°C 79% 1.0 mph SE1.6 kmh SE 2.7 mph4.3 kmh 30.23 in1023.7 mb 0.00 in0.0 mm 0.00 in0.0 mm 0.00 in0.0 mm
06:15 AM 64.8°F18.2°C 58.1°F14.5°C 79% 1.2 mph E1.9 kmh E 2.7 mph4.3 kmh 30.24 in1024.0 mb 0.00 in0.0 mm 0.00 in0.0 mm 0.00 in0.0 mm
06:20 AM 64.8°F18.2°C 58.1°F14.5°C 79% 1.6 mph ESE2.6 kmh ESE 2.7 mph4.3 kmh 30.24 in1024.0 mb 0.00 in0.0 mm 0.00 in0.0 mm 0.00 in0.0 mm
06:25 AM 64.8°F18.2°C 58.1°F14.5°C 79% 0.5 mph SSE0.8 kmh SSE 2.2 mph3.5 kmh 30.24 in1024.0 mb 0.00 in0.0 mm 0.00 in0.0 mm 0.00 in0.0 mm
06:30 AM 64.8°F18.2°C 58.1°F14.5°C 79% 0.2 mph S0.3 kmh S 1.7 mph2.7 kmh 30.24 in1024.0 mb 0.00 in0.0 mm 0.00 in0.0 mm 0.00 in0.0 mm
06:35 AM 64.8°F18.2°C 58.1°F14.5°C 79% 0.3 mph SE0.5 kmh SE 1.1 mph1.8 kmh 30.24 in1024.0 mb 0.00 in0.0 mm 0.00 in0.0 mm 0.00 in0.0 mm
06:40 AM 65.0°F18.3°C 58.3°F14.6°C 79% 0.1 mph S0.2 kmh S 1.1 mph1.8 kmh 30.24 in1024.0 mb 0.00 in0.0 mm 0.00 in0.0 mm 0.00 in0.0 mm
06:45 AM 65.4°F18.6°C 58.5°F14.7°C 78% 0.2 mph NE0.3 kmh NE 1.7 mph2.7 kmh 30.24 in1024.0 mb 0.00 in0.0 mm 0.00 in0.0 mm 0.00 in0.0 mm
06:50 AM 65.7°F18.7°C 58.6°F14.8°C 78% 0.2 mph E0.3 kmh E 1.7 mph2.7 kmh 30.24 in1024.0 mb 0.00 in0.0 mm 0.00 in0.0 mm 0.00 in0.0 mm
06:55 AM 65.8°F18.8°C 58.7°F14.8°C 78% 0.1 mph NNW0.2 kmh NNW 1.1 mph1.8 kmh 30.24 in1024.0 mb 0.00 in0.0 mm 0.00 in0.0 mm 0.00 in0.0 mm
07:00 AM 65.8°F18.8°C 58.7°F14.8°C 78% 0.1 mph N0.2 kmh N 1.1 mph1.8 kmh 30.24 in1024.0 mb 0.00 in0.0 mm 0.00 in0.0 mm 0.00 in0.0 mm
07:05 AM 66.1°F18.9°C 58.4°F14.7°C 76% 1.4 mph SSW2.3 kmh SSW 3.2 mph5.1 kmh 30.25 in1024.4 mb 0.00 in0.0 mm 0.00 in0.0 mm 0.00 in0.0 mm
07:10 AM 66.3°F19.1°C 58.5°F14.7°C 76% 0.5 mph E0.8 kmh E 1.7 mph2.7 kmh 30.25 in1024.4 mb 0.00 in0.0 mm 0.00 in0.0 mm 0.00 in0.0 mm
07:15 AM 66.9°F19.4°C 59.0°F15.0°C 76% 0.8 mph WSW1.3 kmh WSW 1.7 mph2.7 kmh 30.25 in1024.4 mb 0.00 in0.0 mm 0.00 in0.0 mm 0.00 in0.0 mm
07:20 AM 68.1°F20.1°C 59.2°F15.1°C 73% 0.1 mph N0.2 kmh N 1.1 mph1.8 kmh 30.25 in1024.4 mb 0.00 in0.0 mm 0.00 in0.0 mm 0.00 in0.0 mm
07:25 AM 69.7°F20.9°C 59.6°F15.3°C 70% 0.7 mph S1.1 kmh S 2.2 mph3.5 kmh 30.26 in1024.7 mb 0.00 in0.0 mm 0.00 in0.0 mm 0.00 in0.0 mm
07:30 AM 71.1°F21.7°C 59.6°F15.3°C 67% 1.3 mph SE2.1 kmh SE 2.7 mph4.3 kmh 30.26 in1024.7 mb 0.00 in0.0 mm 0.00 in0.0 mm 0.00 in0.0 mm
07:35 AM 72.0°F22.2°C 59.6°F15.3°C 65% 2.1 mph E3.4 kmh E 3.2 mph5.1 kmh 30.26 in1024.7 mb 0.00 in0.0 mm 0.00 in0.0 mm 0.00 in0.0 mm
07:40 AM 71.4°F21.9°C 59.5°F15.3°C 66% 1.9 mph S3.1 kmh S 3.7 mph6.0 kmh 30.26 in1024.7 mb 0.00 in0.0 mm 0.00 in0.0 mm 0.00 in0.0 mm
07:45 AM 71.6°F22.0°C 59.9°F15.5°C 66% 1.8 mph E2.9 kmh E 3.2 mph5.1 kmh 30.26 in1024.7 mb 0.00 in0.0 mm 0.00 in0.0 mm 0.00 in0.0 mm
07:50 AM 72.4°F22.4°C 60.3°F15.7°C 66% 1.7 mph NNE2.7 kmh NNE 3.2 mph5.1 kmh 30.26 in1024.7 mb 0.00 in0.0 mm 0.00 in0.0 mm 0.00 in0.0 mm
07:55 AM 72.6°F22.6°C 60.2°F15.7°C 65% 2.0 mph SE3.2 kmh SE 3.2 mph5.1 kmh 30.26 in1024.7 mb 0.00 in0.0 mm 0.00 in0.0 mm 0.00 in0.0 mm
08:00 AM 72.0°F22.2°C 60.0°F15.6°C 66% 1.9 mph ESE3.1 kmh ESE 2.7 mph4.3 kmh 30.26 in1024.7 mb 0.00 in0.0 mm 0.00 in0.0 mm 0.00 in0.0 mm
08:05 AM 72.0°F22.2°C 60.0°F15.6°C 66% 1.8 mph SSE2.9 kmh SSE 3.2 mph5.1 kmh 30.26 in1024.7 mb 0.00 in0.0 mm 0.00 in0.0 mm 0.00 in0.0 mm
08:10 AM 72.0°F22.2°C 60.2°F15.7°C 66% 1.9 mph ESE3.1 kmh ESE 3.2 mph5.1 kmh 30.26 in1024.7 mb 0.00 in0.0 mm 0.00 in0.0 mm 0.00 in0.0 mm
08:15 AM 71.8°F22.1°C 60.5°F15.8°C 68% 0.7 mph SSW1.1 kmh SSW 2.2 mph3.5 kmh 30.26 in1024.7 mb 0.00 in0.0 mm 0.00 in0.0 mm 0.00 in0.0 mm
08:20 AM 72.4°F22.4°C 60.8°F16.0°C 67% 0.3 mph SSE0.5 kmh SSE 2.2 mph3.5 kmh 30.26 in1024.7 mb 0.00 in0.0 mm 0.00 in0.0 mm 0.00 in0.0 mm
08:25 AM 73.2°F22.9°C 61.0°F16.1°C 66% 1.4 mph SSW2.3 kmh SSW 2.2 mph3.5 kmh 30.26 in1024.7 mb 0.00 in0.0 mm 0.00 in0.0 mm 0.00 in0.0 mm
08:30 AM 73.9°F23.3°C 61.4°F16.3°C 65% 1.1 mph E1.8 kmh E 2.7 mph4.3 kmh 30.26 in1024.7 mb 0.00 in0.0 mm 0.00 in0.0 mm 0.00 in0.0 mm
08:35 AM 74.2°F23.4°C 61.2°F16.2°C 64% 2.0 mph E3.2 kmh E 3.7 mph6.0 kmh 30.26 in1024.7 mb 0.00 in0.0 mm 0.00 in0.0 mm 0.00 in0.0 mm
08:40 AM 74.0°F23.3°C 61.7°F16.5°C 65% 1.7 mph SE2.7 kmh SE 2.7 mph4.3 kmh 30.27 in1025.1 mb 0.00 in0.0 mm 0.00 in0.0 mm 0.00 in0.0 mm
08:45 AM 74.2°F23.4°C 61.8°F16.6°C 65% 1.2 mph SE1.9 kmh SE 2.7 mph4.3 kmh 30.27 in1025.1 mb 0.00 in0.0 mm 0.00 in0.0 mm 0.00 in0.0 mm
08:50 AM 74.9°F23.8°C 62.1°F16.7°C 64% 1.6 mph S2.6 kmh S 2.7 mph4.3 kmh 30.27 in1025.1 mb 0.00 in0.0 mm 0.00 in0.0 mm 0.00 in0.0 mm
08:55 AM 75.4°F24.1°C 62.0°F16.7°C 63% 1.8 mph WSW2.9 kmh WSW 2.7 mph4.3 kmh 30.27 in1025.1 mb 0.00 in0.0 mm 0.00 in0.0 mm 0.00 in0.0 mm
09:00 AM 75.8°F24.3°C 62.2°F16.8°C 63% 1.9 mph SE3.1 kmh SE 2.7 mph4.3 kmh 30.27 in1025.1 mb 0.00 in0.0 mm 0.00 in0.0 mm 0.00 in0.0 mm
09:05 AM 76.0°F24.4°C 62.2°F16.8°C 62% 1.3 mph ESE2.1 kmh ESE 3.2 mph5.1 kmh 30.27 in1025.1 mb 0.00 in0.0 mm 0.00 in0.0 mm 0.00 in0.0 mm
09:10 AM 76.2°F24.6°C 62.1°F16.7°C 62% 2.1 mph SE3.4 kmh SE 3.2 mph5.1 kmh 30.27 in1025.1 mb 0.00 in0.0 mm 0.00 in0.0 mm 0.00 in0.0 mm
09:15 AM 77.3°F25.2°C 62.6°F17.0°C 61% 2.0 mph S3.2 kmh S 3.7 mph6.0 kmh 30.27 in1025.1 mb 0.00 in0.0 mm 0.00 in0.0 mm 0.00 in0.0 mm
09:20 AM 78.6°F25.9°C 62.9°F17.2°C 59% 1.6 mph SE2.6 kmh SE 3.2 mph5.1 kmh 30.27 in1025.1 mb 0.00 in0.0 mm 0.00 in0.0 mm 0.00 in0.0 mm
09:25 AM 79.4°F26.3°C 63.0°F17.2°C 57% 1.7 mph S2.7 kmh S 2.7 mph4.3 kmh 30.27 in1025.1 mb 0.00 in0.0 mm 0.00 in0.0 mm 0.00 in0.0 mm
09:30 AM 79.6°F26.4°C 63.4°F17.4°C 58% 1.5 mph S2.4 kmh S 2.7 mph4.3 kmh 30.28 in1025.4 mb 0.00 in0.0 mm 0.00 in0.0 mm 0.00 in0.0 mm
09:35 AM 79.4°F26.3°C 63.7°F17.6°C 59% 1.2 mph SE1.9 kmh SE 2.7 mph4.3 kmh 30.28 in1025.4 mb 0.00 in0.0 mm 0.00 in0.0 mm 0.00 in0.0 mm
09:40 AM 78.7°F25.9°C 63.1°F17.3°C 59% 2.4 mph ENE3.9 kmh ENE 4.7 mph7.6 kmh 30.28 in1025.4 mb 0.00 in0.0 mm 0.00 in0.0 mm 0.00 in0.0 mm
09:45 AM 78.5°F25.8°C 62.8°F17.1°C 59% 2.4 mph SSE3.9 kmh SSE 3.7 mph6.0 kmh 30.28 in1025.4 mb 0.00 in0.0 mm 0.00 in0.0 mm 0.00 in0.0 mm
09:50 AM 78.1°F25.6°C 62.9°F17.2°C 60% 2.4 mph ESE3.9 kmh ESE 4.7 mph7.6 kmh 30.28 in1025.4 mb 0.00 in0.0 mm 0.00 in0.0 mm 0.00 in0.0 mm
09:55 AM 77.6°F25.3°C 63.0°F17.2°C 61% 2.6 mph SE4.2 kmh SE 5.8 mph9.3 kmh 30.28 in1025.4 mb 0.00 in0.0 mm 0.00 in0.0 mm 0.00 in0.0 mm
10:00 AM 78.3°F25.7°C 63.7°F17.6°C 61% 2.0 mph S3.2 kmh S 3.2 mph5.1 kmh 30.28 in1025.4 mb 0.00 in0.0 mm 0.00 in0.0 mm 0.00 in0.0 mm
10:05 AM 79.0°F26.1°C 64.1°F17.8°C 60% 1.4 mph S2.3 kmh S 2.7 mph4.3 kmh 30.28 in1025.4 mb 0.00 in0.0 mm 0.00 in0.0 mm 0.00 in0.0 mm
10:10 AM 80.5°F26.9°C 64.5°F18.1°C 58% 2.2 mph SE3.5 kmh SE 2.7 mph4.3 kmh 30.28 in1025.4 mb 0.00 in0.0 mm 0.00 in0.0 mm 0.00 in0.0 mm
10:15 AM 80.7°F27.1°C 64.6°F18.1°C 58% 1.8 mph SW2.9 kmh SW 3.7 mph6.0 kmh 30.28 in1025.4 mb 0.00 in0.0 mm 0.00 in0.0 mm 0.00 in0.0 mm
10:20 AM 80.6°F27.0°C 64.9°F18.3°C 59% 2.0 mph S3.2 kmh S 3.7 mph6.0 kmh 30.28 in1025.4 mb 0.00 in0.0 mm 0.00 in0.0 mm 0.00 in0.0 mm
10:25 AM 80.0°F26.7°C 64.5°F18.1°C 59% 2.4 mph SE3.9 kmh SE 4.2 mph6.8 kmh 30.28 in1025.4 mb 0.00 in0.0 mm 0.00 in0.0 mm 0.00 in0.0 mm
10:30 AM 80.7°F27.1°C 65.1°F18.4°C 59% 2.3 mph S3.7 kmh S 3.7 mph6.0 kmh 30.28 in1025.4 mb 0.00 in0.0 mm 0.00 in0.0 mm 0.00 in0.0 mm
10:35 AM 81.8°F27.7°C 65.4°F18.6°C 58% 1.7 mph SE2.7 kmh SE 3.2 mph5.1 kmh 30.28 in1025.4 mb 0.00 in0.0 mm 0.00 in0.0 mm 0.00 in0.0 mm
10:40 AM 82.7°F28.2°C 65.6°F18.7°C 56% 1.5 mph SE2.4 kmh SE 4.2 mph6.8 kmh 30.27 in1025.1 mb 0.00 in0.0 mm 0.00 in0.0 mm 0.00 in0.0 mm
10:45 AM 83.4°F28.6°C 65.9°F18.8°C 56% 2.5 mph SSW4.0 kmh SSW 3.7 mph6.0 kmh 30.27 in1025.1 mb 0.00 in0.0 mm 0.00 in0.0 mm 0.00 in0.0 mm
10:50 AM 82.9°F28.3°C 65.5°F18.6°C 56% 2.6 mph SE4.2 kmh SE 3.7 mph6.0 kmh 30.27 in1025.1 mb 0.00 in0.0 mm 0.00 in0.0 mm 0.00 in0.0 mm
10:55 AM 83.2°F28.4°C 65.3°F18.5°C 55% 2.0 mph S3.2 kmh S 2.7 mph4.3 kmh 30.27 in1025.1 mb 0.00 in0.0 mm 0.00 in0.0 mm 0.00 in0.0 mm
11:00 AM 83.7°F28.7°C 65.6°F18.7°C 55% 2.6 mph S4.2 kmh S 4.2 mph6.8 kmh 30.27 in1025.1 mb 0.00 in0.0 mm 0.00 in0.0 mm 0.00 in0.0 mm
11:05 AM 84.7°F29.3°C 66.0°F18.9°C 54% 2.0 mph SSE3.2 kmh SSE 2.7 mph4.3 kmh 30.28 in1025.4 mb 0.00 in0.0 mm 0.00 in0.0 mm 0.00 in0.0 mm
11:10 AM 86.8°F30.4°C 65.8°F18.8°C 50% 2.2 mph S3.5 kmh S 2.7 mph4.3 kmh 30.28 in1025.4 mb 0.00 in0.0 mm 0.00 in0.0 mm 0.00 in0.0 mm
11:15 AM 85.1°F29.5°C 65.6°F18.7°C 52% 2.8 mph SSE4.5 kmh SSE 4.2 mph6.8 kmh 30.28 in1025.4 mb 0.00 in0.0 mm 0.00 in0.0 mm 0.00 in0.0 mm
11:20 AM 85.0°F29.4°C 65.5°F18.6°C 52% 2.6 mph S4.2 kmh S 4.2 mph6.8 kmh 30.28 in1025.4 mb 0.00 in0.0 mm 0.00 in0.0 mm 0.00 in0.0 mm
11:25 AM 85.2°F29.6°C 65.4°F18.6°C 52% 2.2 mph SSW3.5 kmh SSW 4.2 mph6.8 kmh 30.28 in1025.4 mb 0.00 in0.0 mm 0.00 in0.0 mm 0.00 in0.0 mm
11:30 AM 86.0°F30.0°C 66.0°F18.9°C 52% 2.6 mph S4.2 kmh S 3.7 mph6.0 kmh 30.27 in1025.1 mb 0.00 in0.0 mm 0.00 in0.0 mm 0.00 in0.0 mm
11:35 AM 84.7°F29.3°C 64.9°F18.3°C 52% 2.8 mph S4.5 kmh S 3.7 mph6.0 kmh 30.27 in1025.1 mb 0.00 in0.0 mm 0.00 in0.0 mm 0.00 in0.0 mm
11:40 AM 84.8°F29.3°C 64.8°F18.2°C 51% 2.9 mph S4.7 kmh S 3.7 mph6.0 kmh 30.27 in1025.1 mb 0.00 in0.0 mm 0.00 in0.0 mm 0.00 in0.0 mm
11:45 AM 85.4°F29.7°C 65.8°F18.8°C 52% 2.5 mph S4.0 kmh S 4.2 mph6.8 kmh 30.27 in1025.1 mb 0.00 in0.0 mm 0.00 in0.0 mm 0.00 in0.0 mm
11:50 AM 87.5°F30.8°C 65.9°F18.8°C 49% 1.7 mph S2.7 kmh S 2.7 mph4.3 kmh 30.27 in1025.1 mb 0.00 in0.0 mm 0.00 in0.0 mm 0.00 in0.0 mm
11:55 AM 87.2°F30.7°C 65.3°F18.5°C 48% 2.3 mph SSE3.7 kmh SSE 3.7 mph6.0 kmh 30.27 in1025.1 mb 0.00 in0.0 mm 0.00 in0.0 mm 0.00 in0.0 mm
12:00 PM 86.3°F30.2°C 65.4°F18.6°C 50% 2.6 mph S4.2 kmh S 4.7 mph7.6 kmh 30.27 in1025.1 mb 0.00 in0.0 mm 0.00 in0.0 mm 0.00 in0.0 mm
12:05 PM 87.5°F30.8°C 65.1°F18.4°C 48% 2.3 mph SSE3.7 kmh SSE 3.7 mph6.0 kmh 30.27 in1025.1 mb 0.00 in0.0 mm 0.00 in0.0 mm 0.00 in0.0 mm
12:10 PM 88.0°F31.1°C 65.4°F18.6°C 47% 2.1 mph E3.4 kmh E 3.2 mph5.1 kmh 30.27 in1025.1 mb 0.00 in0.0 mm 0.00 in0.0 mm 0.00 in0.0 mm
12:15 PM 87.4°F30.8°C 64.9°F18.3°C 47% 2.5 mph SSW4.0 kmh SSW 4.2 mph6.8 kmh 30.27 in1025.1 mb 0.00 in0.0 mm 0.00 in0.0 mm 0.00 in0.0 mm
12:20 PM 86.8°F30.4°C 65.5°F18.6°C 49% 2.3 mph S3.7 kmh S 4.2 mph6.8 kmh 30.27 in1025.1 mb 0.00 in0.0 mm 0.00 in0.0 mm 0.00 in0.0 mm
12:25 PM 86.7°F30.4°C 65.4°F18.6°C 49% 2.7 mph SSW4.3 kmh SSW 3.7 mph6.0 kmh 30.27 in1025.1 mb 0.00 in0.0 mm 0.00 in0.0 mm 0.00 in0.0 mm
12:30 PM 87.0°F30.6°C 65.3°F18.5°C 49% 2.4 mph S3.9 kmh S 2.7 mph4.3 kmh 30.27 in1025.1 mb 0.00 in0.0 mm 0.00 in0.0 mm 0.00 in0.0 mm
12:35 PM 88.4°F31.3°C 65.5°F18.6°C 47% 2.5 mph SSE4.0 kmh SSE 3.7 mph6.0 kmh 30.27 in1025.1 mb 0.00 in0.0 mm 0.00 in0.0 mm 0.00 in0.0 mm
12:40 PM 88.0°F31.1°C 65.8°F18.8°C 48% 2.8 mph S4.5 kmh S 5.3 mph8.5 kmh 30.27 in1025.1 mb 0.00 in0.0 mm 0.00 in0.0 mm 0.00 in0.0 mm
12:45 PM 87.3°F30.7°C 65.7°F18.7°C 49% 2.9 mph ESE4.7 kmh ESE 4.7 mph7.6 kmh 30.27 in1025.1 mb 0.00 in0.0 mm 0.00 in0.0 mm 0.00 in0.0 mm
12:50 PM 86.6°F30.3°C 66.1°F18.9°C 51% 3.0 mph SSE4.8 kmh SSE 4.2 mph6.8 kmh 30.27 in1025.1 mb 0.00 in0.0 mm 0.00 in0.0 mm 0.00 in0.0 mm
12:55 PM 86.7°F30.4°C 65.9°F18.8°C 50% 2.3 mph SSW3.7 kmh SSW 4.2 mph6.8 kmh 30.27 in1025.1 mb 0.00 in0.0 mm 0.00 in0.0 mm 0.00 in0.0 mm
01:00 PM 86.7°F30.4°C 66.1°F18.9°C 50% 2.4 mph SE3.9 kmh SE 5.3 mph8.5 kmh 30.27 in1025.1 mb 0.00 in0.0 mm 0.00 in0.0 mm 0.00 in0.0 mm
01:05 PM 87.2°F30.7°C 66.1°F18.9°C 50% 2.8 mph SSE4.5 kmh SSE 5.8 mph9.3 kmh 30.26 in1024.7 mb 0.00 in0.0 mm 0.00 in0.0 mm 0.00 in0.0 mm
01:10 PM 86.2°F30.1°C 65.5°F18.6°C 50% 3.0 mph S4.8 kmh S 4.2 mph6.8 kmh 30.26 in1024.7 mb 0.00 in0.0 mm 0.00 in0.0 mm 0.00 in0.0 mm
01:15 PM 85.2°F29.6°C 65.1°F18.4°C 51% 2.9 mph S4.7 kmh S 4.2 mph6.8 kmh 30.26 in1024.7 mb 0.00 in0.0 mm 0.00 in0.0 mm 0.00 in0.0 mm
01:20 PM 85.2°F29.6°C 65.2°F18.4°C 51% 3.2 mph S5.1 kmh S 4.2 mph6.8 kmh 30.26 in1024.7 mb 0.00 in0.0 mm 0.00 in0.0 mm 0.00 in0.0 mm
01:25 PM 84.7°F29.3°C 65.4°F18.6°C 53% 3.3 mph S5.3 kmh S 4.7 mph7.6 kmh 30.26 in1024.7 mb 0.00 in0.0 mm 0.00 in0.0 mm 0.00 in0.0 mm
01:30 PM 84.6°F29.2°C 65.6°F18.7°C 53% 3.3 mph S5.3 kmh S 4.7 mph7.6 kmh 30.25 in1024.4 mb 0.00 in0.0 mm 0.00 in0.0 mm 0.00 in0.0 mm
01:35 PM 86.0°F30.0°C 66.0°F18.9°C 52% 3.0 mph S4.8 kmh S 5.8 mph9.3 kmh 30.25 in1024.4 mb 0.00 in0.0 mm 0.00 in0.0 mm 0.00 in0.0 mm
01:40 PM 86.0°F30.0°C 65.7°F18.7°C 51% 2.6 mph SE4.2 kmh SE 5.3 mph8.5 kmh 30.25 in1024.4 mb 0.00 in0.0 mm 0.00 in0.0 mm 0.00 in0.0 mm
01:45 PM 86.3°F30.2°C 66.2°F19.0°C 51% 3.0 mph S4.8 kmh S 7.8 mph12.6 kmh 30.25 in1024.4 mb 0.00 in0.0 mm 0.00 in0.0 mm 0.00 in0.0 mm
01:50 PM 85.4°F29.7°C 65.7°F18.7°C 52% 3.0 mph S4.8 kmh S 4.7 mph7.6 kmh 30.25 in1024.4 mb 0.00 in0.0 mm 0.00 in0.0 mm 0.00 in0.0 mm
01:55 PM 85.7°F29.8°C 66.4°F19.1°C 53% 2.5 mph SW4.0 kmh SW 3.7 mph6.0 kmh 30.25 in1024.4 mb 0.00 in0.0 mm 0.00 in0.0 mm 0.00 in0.0 mm
02:00 PM 85.6°F29.8°C 66.4°F19.1°C 53% 2.8 mph SE4.5 kmh SE 6.8 mph10.9 kmh 30.25 in1024.4 mb 0.00 in0.0 mm 0.00 in0.0 mm 0.00 in0.0 mm
02:05 PM 86.1°F30.1°C 66.0°F18.9°C 51% 2.7 mph SW4.3 kmh SW 4.2 mph6.8 kmh 30.26 in1024.7 mb 0.00 in0.0 mm 0.00 in0.0 mm 0.00 in0.0 mm
02:10 PM 85.7°F29.8°C 65.3°F18.5°C 51% 3.1 mph SSE5.0 kmh SSE 5.3 mph8.5 kmh 30.26 in1024.7 mb 0.00 in0.0 mm 0.00 in0.0 mm 0.00 in0.0 mm
02:15 PM 85.1°F29.5°C 66.0°F18.9°C 53% 2.7 mph S4.3 kmh S 4.2 mph6.8 kmh 30.26 in1024.7 mb 0.00 in0.0 mm 0.00 in0.0 mm 0.00 in0.0 mm
02:20 PM 85.0°F29.4°C 65.4°F18.6°C 52% 3.0 mph S4.8 kmh S 5.3 mph8.5 kmh 30.25 in1024.4 mb 0.00 in0.0 mm 0.00 in0.0 mm 0.00 in0.0 mm
02:25 PM 85.3°F29.6°C 65.8°F18.8°C 52% 2.6 mph S4.2 kmh S 4.2 mph6.8 kmh 30.25 in1024.4 mb 0.00 in0.0 mm 0.00 in0.0 mm 0.00 in0.0 mm
02:30 PM 86.2°F30.1°C 66.3°F19.1°C 52% 2.8 mph E4.5 kmh E 4.2 mph6.8 kmh 30.26 in1024.7 mb 0.00 in0.0 mm 0.00 in0.0 mm 0.00 in0.0 mm
02:35 PM 86.1°F30.1°C 66.2°F19.0°C 52% 3.0 mph E4.8 kmh E 4.7 mph7.6 kmh 30.26 in1024.7 mb 0.00 in0.0 mm 0.00 in0.0 mm 0.00 in0.0 mm
02:40 PM 84.4°F29.1°C 66.0°F18.9°C 54% 2.6 mph SSW4.2 kmh SSW 3.7 mph6.0 kmh 30.26 in1024.7 mb 0.00 in0.0 mm 0.00 in0.0 mm 0.00 in0.0 mm
02:45 PM 85.2°F29.6°C 66.2°F19.0°C 53% 2.7 mph S4.3 kmh S 3.7 mph6.0 kmh 30.26 in1024.7 mb 0.00 in0.0 mm 0.00 in0.0 mm 0.00 in0.0 mm
02:50 PM 84.3°F29.1°C 66.0°F18.9°C 54% 2.5 mph SSE4.0 kmh SSE 3.2 mph5.1 kmh 30.26 in1024.7 mb 0.00 in0.0 mm 0.00 in0.0 mm 0.00 in0.0 mm
02:55 PM 84.5°F29.2°C 66.0°F18.9°C 54% 2.4 mph SSE3.9 kmh SSE 3.7 mph6.0 kmh 30.26 in1024.7 mb 0.00 in0.0 mm 0.00 in0.0 mm 0.00 in0.0 mm
03:00 PM 84.1°F28.9°C 66.0°F18.9°C 55% 2.7 mph S4.3 kmh S 4.2 mph6.8 kmh 30.26 in1024.7 mb 0.00 in0.0 mm 0.00 in0.0 mm 0.00 in0.0 mm
03:05 PM 84.0°F28.9°C 65.7°F18.7°C 54% 2.6 mph S4.2 kmh S 3.7 mph6.0 kmh 30.25 in1024.4 mb 0.00 in0.0 mm 0.00 in0.0 mm 0.00 in0.0 mm
03:10 PM 83.2°F28.4°C 66.1°F18.9°C 56% 2.7 mph SSE4.3 kmh SSE 3.7 mph6.0 kmh 30.25 in1024.4 mb 0.00 in0.0 mm 0.00 in0.0 mm 0.00 in0.0 mm
03:15 PM 82.3°F27.9°C 65.7°F18.7°C 57% 3.3 mph S5.3 kmh S 4.7 mph7.6 kmh 30.25 in1024.4 mb 0.00 in0.0 mm 0.00 in0.0 mm 0.00 in0.0 mm
03:20 PM 81.4°F27.4°C 65.3°F18.5°C 58% 2.9 mph SE4.7 kmh SE 4.2 mph6.8 kmh 30.26 in1024.7 mb 0.00 in0.0 mm 0.00 in0.0 mm 0.00 in0.0 mm
03:25 PM 81.1°F27.3°C 65.7°F18.7°C 60% 2.8 mph SSE4.5 kmh SSE 4.2 mph6.8 kmh 30.26 in1024.7 mb 0.00 in0.0 mm 0.00 in0.0 mm 0.00 in0.0 mm
03:30 PM 80.7°F27.1°C 65.4°F18.6°C 60% 2.5 mph SSW4.0 kmh SSW 3.2 mph5.1 kmh 30.26 in1024.7 mb 0.00 in0.0 mm 0.00 in0.0 mm 0.00 in0.0 mm
03:35 PM 80.7°F27.1°C 65.5°F18.6°C 60% 2.6 mph S4.2 kmh S 3.7 mph6.0 kmh 30.26 in1024.7 mb 0.00 in0.0 mm 0.00 in0.0 mm 0.00 in0.0 mm
03:40 PM 79.9°F26.6°C 65.2°F18.4°C 61% 2.4 mph S3.9 kmh S 3.7 mph6.0 kmh 30.26 in1024.7 mb 0.00 in0.0 mm 0.00 in0.0 mm 0.00 in0.0 mm
03:45 PM 79.6°F26.4°C 65.0°F18.3°C 61% 2.5 mph S4.0 kmh S 5.3 mph8.5 kmh 30.26 in1024.7 mb 0.00 in0.0 mm 0.00 in0.0 mm 0.00 in0.0 mm
03:50 PM 78.4°F25.8°C 64.8°F18.2°C 63% 2.6 mph S4.2 kmh S 4.2 mph6.8 kmh 30.26 in1024.7 mb 0.00 in0.0 mm 0.00 in0.0 mm 0.00 in0.0 mm
03:55 PM 77.8°F25.4°C 65.0°F18.3°C 65% 2.6 mph SE4.2 kmh SE 4.2 mph6.8 kmh 30.26 in1024.7 mb 0.00 in0.0 mm 0.00 in0.0 mm 0.00 in0.0 mm
04:00 PM 77.6°F25.3°C 65.2°F18.4°C 66% 2.4 mph S3.9 kmh S 3.2 mph5.1 kmh 30.26 in1024.7 mb 0.00 in0.0 mm 0.00 in0.0 mm 0.00 in0.0 mm
04:05 PM 77.5°F25.3°C 65.2°F18.4°C 66% 2.3 mph SSE3.7 kmh SSE 6.8 mph10.9 kmh 30.26 in1024.7 mb 0.00 in0.0 mm 0.00 in0.0 mm 0.00 in0.0 mm
04:10 PM 77.3°F25.2°C 65.1°F18.4°C 66% 2.6 mph S4.2 kmh S 4.2 mph6.8 kmh 30.26 in1024.7 mb 0.00 in0.0 mm 0.00 in0.0 mm 0.00 in0.0 mm
04:15 PM 77.1°F25.1°C 65.4°F18.6°C 67% 2.0 mph S3.2 kmh S 3.2 mph5.1 kmh 30.27 in1025.1 mb 0.00 in0.0 mm 0.00 in0.0 mm 0.00 in0.0 mm
04:20 PM 76.9°F24.9°C 65.5°F18.6°C 68% 2.8 mph SE4.5 kmh SE 4.2 mph6.8 kmh 30.27 in1025.1 mb 0.00 in0.0 mm 0.00 in0.0 mm 0.00 in0.0 mm
04:25 PM 76.6°F24.8°C 65.2°F18.4°C 68% 2.6 mph S4.2 kmh S 5.3 mph8.5 kmh 30.27 in1025.1 mb 0.00 in0.0 mm 0.00 in0.0 mm 0.00 in0.0 mm
04:30 PM 76.8°F24.9°C 65.3°F18.5°C 68% 1.7 mph SW2.7 kmh SW 2.7 mph4.3 kmh 30.27 in1025.1 mb 0.00 in0.0 mm 0.00 in0.0 mm 0.00 in0.0 mm
04:35 PM 77.0°F25.0°C 65.4°F18.6°C 68% 2.6 mph S4.2 kmh S 4.2 mph6.8 kmh 30.27 in1025.1 mb 0.00 in0.0 mm 0.00 in0.0 mm 0.00 in0.0 mm
04:40 PM 77.1°F25.1°C 65.5°F18.6°C 67% 2.1 mph SE3.4 kmh SE 3.2 mph5.1 kmh 30.27 in1025.1 mb 0.00 in0.0 mm 0.00 in0.0 mm 0.00 in0.0 mm
04:45 PM 77.0°F25.0°C 65.2°F18.4°C 67% 1.9 mph SSE3.1 kmh SSE 2.7 mph4.3 kmh 30.27 in1025.1 mb 0.00 in0.0 mm 0.00 in0.0 mm 0.00 in0.0 mm
04:50 PM 77.1°F25.1°C 65.5°F18.6°C 68% 1.6 mph SE2.6 kmh SE 2.2 mph3.5 kmh 30.27 in1025.1 mb 0.00 in0.0 mm 0.00 in0.0 mm 0.00 in0.0 mm
04:55 PM 76.8°F24.9°C 65.6°F18.7°C 69% 1.1 mph S1.8 kmh S 2.7 mph4.3 kmh 30.27 in1025.1 mb 0.00 in0.0 mm 0.00 in0.0 mm 0.00 in0.0 mm
05:00 PM 76.8°F24.9°C 65.7°F18.7°C 69% 1.0 mph S1.6 kmh S 2.2 mph3.5 kmh 30.27 in1025.1 mb 0.00 in0.0 mm 0.00 in0.0 mm 0.00 in0.0 mm
05:05 PM 75.9°F24.4°C 65.4°F18.6°C 70% 2.1 mph S3.4 kmh S 3.2 mph5.1 kmh 30.27 in1025.1 mb 0.00 in0.0 mm 0.00 in0.0 mm 0.00 in0.0 mm
05:10 PM 75.2°F24.0°C 65.4°F18.6°C 72% 1.4 mph S2.3 kmh S 2.7 mph4.3 kmh 30.27 in1025.1 mb 0.00 in0.0 mm 0.00 in0.0 mm 0.00 in0.0 mm
05:15 PM 74.6°F23.7°C 65.1°F18.4°C 72% 1.2 mph S1.9 kmh S 2.2 mph3.5 kmh 30.27 in1025.1 mb 0.00 in0.0 mm 0.00 in0.0 mm 0.00 in0.0 mm
05:20 PM 74.4°F23.6°C 65.2°F18.4°C 73% 0.6 mph SW1.0 kmh SW 2.2 mph3.5 kmh 30.27 in1025.1 mb 0.00 in0.0 mm 0.00 in0.0 mm 0.00 in0.0 mm
05:25 PM 73.9°F23.3°C 65.1°F18.4°C 74% 1.8 mph SE2.9 kmh SE 2.7 mph4.3 kmh 30.27 in1025.1 mb 0.00 in0.0 mm 0.00 in0.0 mm 0.00 in0.0 mm
05:30 PM 73.6°F23.1°C 65.1°F18.4°C 75% 2.0 mph S3.2 kmh S 3.2 mph5.1 kmh 30.28 in1025.4 mb 0.00 in0.0 mm 0.00 in0.0 mm 0.00 in0.0 mm
05:35 PM 73.1°F22.8°C 65.0°F18.3°C 76% 1.9 mph S3.1 kmh S 3.2 mph5.1 kmh 30.28 in1025.4 mb 0.00 in0.0 mm 0.00 in0.0 mm 0.00 in0.0 mm
05:40 PM 72.9°F22.7°C 65.2°F18.4°C 77% 0.8 mph SE1.3 kmh SE 2.7 mph4.3 kmh 30.28 in1025.4 mb 0.00 in0.0 mm 0.00 in0.0 mm 0.00 in0.0 mm
05:45 PM 72.7°F22.6°C 65.3°F18.5°C 78% 1.8 mph SSE2.9 kmh SSE 3.7 mph6.0 kmh 30.28 in1025.4 mb 0.00 in0.0 mm 0.00 in0.0 mm 0.00 in0.0 mm
05:50 PM 72.2°F22.3°C 65.2°F18.4°C 79% 1.6 mph SW2.6 kmh SW 2.7 mph4.3 kmh 30.28 in1025.4 mb 0.00 in0.0 mm 0.00 in0.0 mm 0.00 in0.0 mm
05:55 PM 72.0°F22.2°C 65.5°F18.6°C 80% 2.0 mph SSE3.2 kmh SSE 3.2 mph5.1 kmh 30.27 in1025.1 mb 0.00 in0.0 mm 0.00 in0.0 mm 0.00 in0.0 mm
06:00 PM 71.6°F22.0°C 65.5°F18.6°C 81% 1.7 mph SE2.7 kmh SE 2.7 mph4.3 kmh 30.27 in1025.1 mb 0.00 in0.0 mm 0.00 in0.0 mm 0.00 in0.0 mm
06:05 PM 71.5°F21.9°C 65.5°F18.6°C 82% 1.2 mph S1.9 kmh S 2.2 mph3.5 kmh 30.27 in1025.1 mb 0.00 in0.0 mm 0.00 in0.0 mm 0.00 in0.0 mm
06:10 PM 71.1°F21.7°C 65.6°F18.7°C 83% 0.5 mph SE0.8 kmh SE 3.2 mph5.1 kmh 30.27 in1025.1 mb 0.00 in0.0 mm 0.00 in0.0 mm 0.00 in0.0 mm
06:15 PM 70.9°F21.6°C 65.5°F18.6°C 83% 1.3 mph S2.1 kmh S 2.7 mph4.3 kmh 30.27 in1025.1 mb 0.00 in0.0 mm 0.00 in0.0 mm 0.00 in0.0 mm
06:20 PM 70.6°F21.4°C 65.5°F18.6°C 84% 1.2 mph S1.9 kmh S 2.2 mph3.5 kmh 30.27 in1025.1 mb 0.00 in0.0 mm 0.00 in0.0 mm 0.00 in0.0 mm
06:25 PM 70.5°F21.4°C 65.4°F18.6°C 84% 0.5 mph SSE0.8 kmh SSE 1.7 mph2.7 kmh 30.27 in1025.1 mb 0.00 in0.0 mm 0.00 in0.0 mm 0.00 in0.0 mm
06:30 PM 70.4°F21.3°C 65.7°F18.7°C 85% 0.5 mph SE0.8 kmh SE 2.2 mph3.5 kmh 30.28 in1025.4 mb 0.00 in0.0 mm 0.00 in0.0 mm 0.00 in0.0 mm
06:35 PM 70.3°F21.3°C 65.6°F18.7°C 85% 0.7 mph SSE1.1 kmh SSE 2.7 mph4.3 kmh 30.28 in1025.4 mb 0.00 in0.0 mm 0.00 in0.0 mm 0.00 in0.0 mm
06:40 PM 70.2°F21.2°C 65.5°F18.6°C 85% 1.2 mph S1.9 kmh S 2.7 mph4.3 kmh 30.28 in1025.4 mb 0.00 in0.0 mm 0.00 in0.0 mm 0.00 in0.0 mm
06:45 PM 70.0°F21.1°C 65.3°F18.5°C 85% 0.3 mph SSE0.5 kmh SSE 1.7 mph2.7 kmh 30.28 in1025.4 mb 0.00 in0.0 mm 0.00 in0.0 mm 0.00 in0.0 mm
06:50 PM 69.9°F21.1°C 65.3°F18.5°C 85% Calm Calm -- 30.28 in1025.4 mb 0.00 in0.0 mm 0.00 in0.0 mm 0.00 in0.0 mm
06:55 PM 69.7°F20.9°C 65.3°F18.5°C 86% 0.9 mph SSE1.4 kmh SSE 2.2 mph3.5 kmh 30.28 in1025.4 mb 0.00 in0.0 mm 0.00 in0.0 mm 0.00 in0.0 mm
07:00 PM 69.6°F20.9°C 65.4°F18.6°C 87% 0.5 mph S0.8 kmh S 1.7 mph2.7 kmh 30.28 in1025.4 mb 0.00 in0.0 mm 0.00 in0.0 mm 0.00 in0.0 mm
07:05 PM 69.4°F20.8°C 65.6°F18.7°C 88% 0.4 mph SW0.6 kmh SW 2.2 mph3.5 kmh 30.28 in1025.4 mb 0.00 in0.0 mm 0.00 in0.0 mm 0.00 in0.0 mm
07:10 PM 69.4°F20.8°C 65.7°F18.7°C 88% 0.9 mph SSE1.4 kmh SSE 2.2 mph3.5 kmh 30.28 in1025.4 mb 0.00 in0.0 mm 0.00 in0.0 mm 0.00 in0.0 mm
07:15 PM 69.3°F20.7°C 65.6°F18.7°C 88% 1.6 mph S2.6 kmh S 3.7 mph6.0 kmh 30.28 in1025.4 mb 0.00 in0.0 mm 0.00 in0.0 mm 0.00 in0.0 mm
07:20 PM 69.3°F20.7°C 65.6°F18.7°C 88% 0.7 mph SE1.1 kmh SE 1.7 mph2.7 kmh 30.28 in1025.4 mb 0.00 in0.0 mm 0.00 in0.0 mm 0.00 in0.0 mm
07:25 PM 69.1°F20.6°C 65.7°F18.7°C 89% 0.7 mph SSE1.1 kmh SSE 1.7 mph2.7 kmh 30.29 in1025.7 mb 0.00 in0.0 mm 0.00 in0.0 mm 0.00 in0.0 mm
07:30 PM 69.1°F20.6°C 65.7°F18.7°C 89% 1.0 mph SE1.6 kmh SE 2.7 mph4.3 kmh 30.29 in1025.7 mb 0.00 in0.0 mm 0.00 in0.0 mm 0.00 in0.0 mm
07:35 PM 69.1°F20.6°C 65.7°F18.7°C 89% 1.2 mph SW1.9 kmh SW 2.2 mph3.5 kmh 30.29 in1025.7 mb 0.00 in0.0 mm 0.00 in0.0 mm 0.00 in0.0 mm
07:40 PM 69.1°F20.6°C 65.7°F18.7°C 89% 2.0 mph S3.2 kmh S 3.7 mph6.0 kmh 30.29 in1025.7 mb 0.00 in0.0 mm 0.00 in0.0 mm 0.00 in0.0 mm
07:45 PM 69.1°F20.6°C 65.7°F18.7°C 89% 1.6 mph S2.6 kmh S 2.7 mph4.3 kmh 30.29 in1025.7 mb 0.00 in0.0 mm 0.00 in0.0 mm 0.00 in0.0 mm
07:50 PM 69.1°F20.6°C 65.7°F18.7°C 89% 1.3 mph SE2.1 kmh SE 2.7 mph4.3 kmh 30.30 in1026.1 mb 0.00 in0.0 mm 0.00 in0.0 mm 0.00 in0.0 mm
07:55 PM 69.1°F20.6°C 65.7°F18.7°C 89% 2.0 mph S3.2 kmh S 2.7 mph4.3 kmh 30.30 in1026.1 mb 0.00 in0.0 mm 0.00 in0.0 mm 0.00 in0.0 mm
08:00 PM 69.2°F20.7°C 65.8°F18.8°C 89% 1.6 mph E2.6 kmh E 2.2 mph3.5 kmh 30.30 in1026.1 mb 0.00 in0.0 mm 0.00 in0.0 mm 0.00 in0.0 mm
08:05 PM 69.3°F20.7°C 65.9°F18.8°C 89% 1.2 mph S1.9 kmh S 3.2 mph5.1 kmh 30.30 in1026.1 mb 0.00 in0.0 mm 0.00 in0.0 mm 0.00 in0.0 mm
08:10 PM 69.3°F20.7°C 65.9°F18.8°C 89% 1.4 mph SSE2.3 kmh SSE 4.2 mph6.8 kmh 30.30 in1026.1 mb 0.00 in0.0 mm 0.00 in0.0 mm 0.00 in0.0 mm
08:15 PM 69.3°F20.7°C 65.9°F18.8°C 89% 0.5 mph SSE0.8 kmh SSE 2.2 mph3.5 kmh 30.30 in1026.1 mb 0.00 in0.0 mm 0.00 in0.0 mm 0.00 in0.0 mm
08:20 PM 69.1°F20.6°C 65.7°F18.7°C 89% 1.0 mph SE1.6 kmh SE 2.7 mph4.3 kmh 30.30 in1026.1 mb 0.00 in0.0 mm 0.00 in0.0 mm 0.00 in0.0 mm
08:25 PM 69.0°F20.6°C 65.6°F18.7°C 89% 1.0 mph S1.6 kmh S 2.2 mph3.5 kmh 30.30 in1026.1 mb 0.00 in0.0 mm 0.00 in0.0 mm 0.00 in0.0 mm
08:30 PM 68.9°F20.5°C 65.7°F18.7°C 90% 1.1 mph ESE1.8 kmh ESE 2.2 mph3.5 kmh 30.30 in1026.1 mb 0.00 in0.0 mm 0.00 in0.0 mm 0.00 in0.0 mm
08:35 PM 68.7°F20.4°C 65.7°F18.7°C 90% 1.1 mph E1.8 kmh E 2.2 mph3.5 kmh 30.30 in1026.1 mb 0.00 in0.0 mm 0.00 in0.0 mm 0.00 in0.0 mm
08:40 PM 68.7°F20.4°C 65.6°F18.7°C 90% 0.4 mph E0.6 kmh E 1.7 mph2.7 kmh 30.30 in1026.1 mb 0.00 in0.0 mm 0.00 in0.0 mm 0.00 in0.0 mm
08:45 PM 68.5°F20.3°C 65.4°F18.6°C 90% 0.2 mph SSE0.3 kmh SSE 1.7 mph2.7 kmh 30.30 in1026.1 mb 0.00 in0.0 mm 0.00 in0.0 mm 0.00 in0.0 mm
08:50 PM 68.5°F20.3°C 65.4°F18.6°C 90% Calm Calm -- 30.30 in1026.1 mb 0.00 in0.0 mm 0.00 in0.0 mm 0.00 in0.0 mm
08:55 PM 68.4°F20.2°C 65.7°F18.7°C 91% Calm Calm -- 30.30 in1026.1 mb 0.00 in0.0 mm 0.00 in0.0 mm 0.00 in0.0 mm
09:00 PM 68.4°F20.2°C 65.6°F18.7°C 91% Calm Calm -- 30.30 in1026.1 mb 0.00 in0.0 mm 0.00 in0.0 mm 0.00 in0.0 mm
09:05 PM 68.2°F20.1°C 65.5°F18.6°C 91% Calm Calm -- 30.31 in1026.4 mb 0.00 in0.0 mm 0.00 in0.0 mm 0.00 in0.0 mm
09:10 PM 68.1°F20.1°C 65.6°F18.7°C 92% Calm Calm -- 30.31 in1026.4 mb 0.00 in0.0 mm 0.00 in0.0 mm 0.00 in0.0 mm
09:15 PM 68.0°F20.0°C 65.6°F18.7°C 92% Calm Calm -- 30.31 in1026.4 mb 0.00 in0.0 mm 0.00 in0.0 mm 0.00 in0.0 mm
09:20 PM 67.8°F19.9°C 65.4°F18.6°C 92% 0.6 mph S1.0 kmh S 1.7 mph2.7 kmh 30.31 in1026.4 mb 0.00 in0.0 mm 0.00 in0.0 mm 0.00 in0.0 mm
09:25 PM 67.8°F19.9°C 65.4°F18.6°C 92% 0.3 mph S0.5 kmh S 1.7 mph2.7 kmh 30.31 in1026.4 mb 0.00 in0.0 mm 0.00 in0.0 mm 0.00 in0.0 mm
09:30 PM 67.6°F19.8°C 65.2°F18.4°C 92% 0.2 mph SE0.3 kmh SE 1.7 mph2.7 kmh 30.31 in1026.4 mb 0.00 in0.0 mm 0.00 in0.0 mm 0.00 in0.0 mm
09:35 PM 67.5°F19.7°C 65.5°F18.6°C 93% Calm Calm -- 30.31 in1026.4 mb 0.00 in0.0 mm 0.00 in0.0 mm 0.00 in0.0 mm
09:40 PM 67.5°F19.7°C 65.4°F18.6°C 93% Calm Calm -- 30.32 in1026.8 mb 0.00 in0.0 mm 0.00 in0.0 mm 0.00 in0.0 mm
09:45 PM 67.5°F19.7°C 65.4°F18.6°C 93% Calm Calm -- 30.32 in1026.8 mb 0.00 in0.0 mm 0.00 in0.0 mm 0.00 in0.0 mm
09:50 PM 67.5°F19.7°C 65.4°F18.6°C 93% Calm Calm -- 30.32 in1026.8 mb 0.00 in0.0 mm 0.00 in0.0 mm 0.00 in0.0 mm
09:55 PM 67.3°F19.6°C 65.3°F18.5°C 93% Calm Calm -- 30.32 in1026.8 mb 0.00 in0.0 mm 0.00 in0.0 mm 0.00 in0.0 mm
10:00 PM 67.1°F19.5°C 65.3°F18.5°C 94% Calm Calm -- 30.32 in1026.8 mb 0.00 in0.0 mm 0.00 in0.0 mm 0.00 in0.0 mm
10:05 PM 66.9°F19.4°C 65.2°F18.4°C 94% Calm Calm -- 30.32 in1026.8 mb 0.00 in0.0 mm 0.00 in0.0 mm 0.00 in0.0 mm
10:10 PM 66.8°F19.3°C 65.3°F18.5°C 95% Calm Calm -- 30.32 in1026.8 mb 0.00 in0.0 mm 0.00 in0.0 mm 0.00 in0.0 mm
10:15 PM 66.7°F19.3°C 65.2°F18.4°C 95% Calm Calm -- 30.32 in1026.8 mb 0.00 in0.0 mm 0.00 in0.0 mm 0.00 in0.0 mm
10:20 PM 66.5°F19.2°C 64.8°F18.2°C 94% Calm Calm -- 30.32 in1026.8 mb 0.00 in0.0 mm 0.00 in0.0 mm 0.00 in0.0 mm
10:25 PM 66.4°F19.1°C 64.7°F18.2°C 94% Calm Calm -- 30.32 in1026.8 mb 0.00 in0.0 mm 0.00 in0.0 mm 0.00 in0.0 mm
10:30 PM 66.2°F19.0°C 64.9°F18.3°C 96% Calm Calm -- 30.32 in1026.8 mb 0.00 in0.0 mm 0.00 in0.0 mm 0.00 in0.0 mm
10:35 PM 66.2°F19.0°C 65.0°F18.3°C 96% Calm Calm -- 30.32 in1026.8 mb 0.00 in0.0 mm 0.00 in0.0 mm 0.00 in0.0 mm
10:40 PM 66.0°F18.9°C 64.7°F18.2°C 95% Calm Calm -- 30.32 in1026.8 mb 0.00 in0.0 mm 0.00 in0.0 mm 0.00 in0.0 mm
10:45 PM 66.0°F18.9°C 64.6°F18.1°C 95% Calm Calm -- 30.32 in1026.8 mb 0.00 in0.0 mm 0.00 in0.0 mm 0.00 in0.0 mm
10:50 PM 65.9°F18.8°C 64.8°F18.2°C 96% Calm Calm -- 30.31 in1026.4 mb 0.00 in0.0 mm 0.00 in0.0 mm 0.00 in0.0 mm
10:55 PM 65.8°F18.8°C 64.9°F18.3°C 97% Calm Calm -- 30.31 in1026.4 mb 0.00 in0.0 mm 0.00 in0.0 mm 0.00 in0.0 mm
11:00 PM 65.8°F18.8°C 64.9°F18.3°C 97% Calm Calm -- 30.31 in1026.4 mb 0.00 in0.0 mm 0.00 in0.0 mm 0.00 in0.0 mm
11:05 PM 65.8°F18.8°C 64.9°F18.3°C 97% Calm Calm -- 30.32 in1026.8 mb 0.00 in0.0 mm 0.00 in0.0 mm 0.00 in0.0 mm
11:10 PM 65.8°F18.8°C 64.9°F18.3°C 97% Calm Calm -- 30.32 in1026.8 mb 0.00 in0.0 mm 0.00 in0.0 mm 0.00 in0.0 mm
11:15 PM 65.7°F18.7°C 64.9°F18.3°C 97% Calm Calm -- 30.31 in1026.4 mb 0.00 in0.0 mm 0.00 in0.0 mm 0.00 in0.0 mm
11:20 PM 65.6°F18.7°C 64.7°F18.2°C 97% Calm Calm -- 30.31 in1026.4 mb 0.00 in0.0 mm 0.00 in0.0 mm 0.00 in0.0 mm
11:25 PM 65.5°F18.6°C 64.6°F18.1°C 97% Calm Calm -- 30.32 in1026.8 mb 0.00 in0.0 mm 0.00 in0.0 mm 0.00 in0.0 mm
11:30 PM 65.5°F18.6°C 64.6°F18.1°C 97% Calm Calm -- 30.32 in1026.8 mb 0.00 in0.0 mm 0.00 in0.0 mm 0.00 in0.0 mm
11:35 PM 65.3°F18.5°C 64.4°F18.0°C 97% Calm Calm -- 30.32 in1026.8 mb 0.00 in0.0 mm 0.00 in0.0 mm 0.00 in0.0 mm
11:40 PM 65.3°F18.5°C 64.4°F18.0°C 97% Calm Calm -- 30.32 in1026.8 mb 0.00 in0.0 mm 0.00 in0.0 mm 0.00 in0.0 mm
11:45 PM 65.3°F18.5°C 64.5°F18.1°C 97% Calm Calm -- 30.32 in1026.8 mb 0.00 in0.0 mm 0.00 in0.0 mm 0.00 in0.0 mm
11:50 PM 65.2°F18.4°C 64.7°F18.2°C 98% Calm Calm -- 30.32 in1026.8 mb 0.00 in0.0 mm 0.00 in0.0 mm 0.00 in0.0 mm
11:55 PM 65.1°F18.4°C 64.5°F18.1°C 98% Calm Calm -- 30.32 in1026.8 mb 0.00 in0.0 mm 0.00 in0.0 mm 0.00 in0.0 mm